sensor_id;sensor_type;location;lat;lon;timestamp;pressure;altitude;pressure_sealevel;temperature;humidity
2675;BME280;1347;42.122;24.746;2023-03-16T00:02:05;98482.13;;;10.67;61.79
2675;BME280;1347;42.122;24.746;2023-03-16T00:04:34;98479.38;;;10.63;62.07
2675;BME280;1347;42.122;24.746;2023-03-16T00:07:01;98475.47;;;10.68;62.24
2675;BME280;1347;42.122;24.746;2023-03-16T00:09:29;98470.75;;;10.68;62.46
2675;BME280;1347;42.122;24.746;2023-03-16T00:11:56;98469.56;;;10.73;62.54
2675;BME280;1347;42.122;24.746;2023-03-16T00:14:23;98468.03;;;10.68;63.07
2675;BME280;1347;42.122;24.746;2023-03-16T00:16:50;98479.75;;;10.65;63.67
2675;BME280;1347;42.122;24.746;2023-03-16T00:19:17;98476.25;;;10.61;64.21
2675;BME280;1347;42.122;24.746;2023-03-16T00:21:48;98473.50;;;10.65;64.53
2675;BME280;1347;42.122;24.746;2023-03-16T00:24:16;98478.19;;;10.68;64.27
2675;BME280;1347;42.122;24.746;2023-03-16T00:26:43;98471.50;;;10.69;65.10
2675;BME280;1347;42.122;24.746;2023-03-16T00:29:10;98473.09;;;10.74;65.29
2675;BME280;1347;42.122;24.746;2023-03-16T00:31:38;98472.69;;;10.72;65.55
2675;BME280;1347;42.122;24.746;2023-03-16T00:34:08;98474.25;;;10.73;65.76
2675;BME280;1347;42.122;24.746;2023-03-16T00:36:35;98478.97;;;10.76;65.71
2675;BME280;1347;42.122;24.746;2023-03-16T00:39:04;98474.66;;;10.71;66.05
2675;BME280;1347;42.122;24.746;2023-03-16T00:41:31;98478.56;;;10.77;66.44
2675;BME280;1347;42.122;24.746;2023-03-16T00:44:02;98476.19;;;10.83;66.35
2675;BME280;1347;42.122;24.746;2023-03-16T00:46:29;98482.84;;;10.85;66.52
2675;BME280;1347;42.122;24.746;2023-03-16T00:48:56;98482.84;;;10.85;66.99
2675;BME280;1347;42.122;24.746;2023-03-16T00:51:22;98484.84;;;10.78;67.39
2675;BME280;1347;42.122;24.746;2023-03-16T00:53:49;98487.19;;;10.76;67.60
2675;BME280;1347;42.122;24.746;2023-03-16T00:56:18;98493.03;;;10.81;67.41
2675;BME280;1347;42.122;24.746;2023-03-16T00:58:45;98486.00;;;10.77;67.89
2675;BME280;1347;42.122;24.746;2023-03-16T01:01:13;98495.78;;;10.78;68.37
2675;BME280;1347;42.122;24.746;2023-03-16T01:03:41;98502.41;;;10.80;68.50
2675;BME280;1347;42.122;24.746;2023-03-16T01:06:10;98505.94;;;10.81;68.63
2675;BME280;1347;42.122;24.746;2023-03-16T01:08:38;98505.59;;;10.79;68.95
2675;BME280;1347;42.122;24.746;2023-03-16T01:11:07;98504.41;;;10.73;69.20
2675;BME280;1347;42.122;24.746;2023-03-16T01:13:37;98509.09;;;10.76;69.18
2675;BME280;1347;42.122;24.746;2023-03-16T01:16:04;98504.00;;;10.81;69.27
2675;BME280;1347;42.122;24.746;2023-03-16T01:18:32;98505.16;;;10.84;69.33
2675;BME280;1347;42.122;24.746;2023-03-16T01:20:59;98506.72;;;10.81;69.28
2675;BME280;1347;42.122;24.746;2023-03-16T01:23:26;98510.66;;;10.80;69.72
2675;BME280;1347;42.122;24.746;2023-03-16T01:25:56;98512.22;;;10.81;69.65
2675;BME280;1347;42.122;24.746;2023-03-16T01:28:25;98517.34;;;10.76;70.31
2675;BME280;1347;42.122;24.746;2023-03-16T01:30:57;98518.91;;;10.73;70.86
2675;BME280;1347;42.122;24.746;2023-03-16T01:33:26;98520.88;;;10.65;71.25
2675;BME280;1347;42.122;24.746;2023-03-16T01:35:54;98513.44;;;10.55;72.13
2675;BME280;1347;42.122;24.746;2023-03-16T01:38:21;98536.94;;;10.49;72.55
2675;BME280;1347;42.122;24.746;2023-03-16T01:40:49;98528.31;;;10.40;72.95
2675;BME280;1347;42.122;24.746;2023-03-16T01:43:17;98528.31;;;10.29;73.50
2675;BME280;1347;42.122;24.746;2023-03-16T01:49:10;98525.94;;;10.10;71.70
2675;BME280;1347;42.122;24.746;2023-03-16T01:51:40;98523.22;;;9.96;70.69
2675;BME280;1347;42.122;24.746;2023-03-16T01:54:14;98529.03;;;9.80;71.21
2675;BME280;1347;42.122;24.746;2023-03-16T01:56:44;98535.25;;;9.70;71.49
2675;BME280;1347;42.122;24.746;2023-03-16T01:59:17;98537.59;;;9.68;71.47
2675;BME280;1347;42.122;24.746;2023-03-16T02:01:46;98541.13;;;9.69;71.28
2675;BME280;1347;42.122;24.746;2023-03-16T02:07:12;98543.00;;;9.47;71.81
2675;BME280;1347;42.122;24.746;2023-03-16T02:09:43;98550.47;;;9.46;72.17
2675;BME280;1347;42.122;24.746;2023-03-16T02:12:13;98556.31;;;9.45;72.26
2675;BME280;1347;42.122;24.746;2023-03-16T02:14:43;98550.44;;;9.43;72.43
2675;BME280;1347;42.122;24.746;2023-03-16T02:17:10;98558.22;;;9.41;72.62
2675;BME280;1347;42.122;24.746;2023-03-16T02:19:45;98575.06;;;9.43;72.48
2675;BME280;1347;42.122;24.746;2023-03-16T02:22:13;98567.59;;;9.40;72.76
2675;BME280;1347;42.122;24.746;2023-03-16T02:24:41;98570.75;;;9.42;73.29
2675;BME280;1347;42.122;24.746;2023-03-16T02:27:09;98574.66;;;9.44;73.62
2675;BME280;1347;42.122;24.746;2023-03-16T02:30:01;98566.44;;;9.41;73.51
2675;BME280;1347;42.122;24.746;2023-03-16T02:32:30;98575.06;;;9.46;73.37
2675;BME280;1347;42.122;24.746;2023-03-16T02:34:58;98573.50;;;9.49;73.26
2675;BME280;1347;42.122;24.746;2023-03-16T02:37:27;98572.72;;;9.45;72.85
2675;BME280;1347;42.122;24.746;2023-03-16T02:39:54;98576.63;;;9.47;72.32
2675;BME280;1347;42.122;24.746;2023-03-16T02:42:22;98578.19;;;9.45;72.64
2675;BME280;1347;42.122;24.746;2023-03-16T02:44:54;98581.66;;;9.35;72.28
2675;BME280;1347;42.122;24.746;2023-03-16T02:47:29;98589.06;;;9.31;72.11
2675;BME280;1347;42.122;24.746;2023-03-16T02:49:58;98592.19;;;9.33;71.97
2675;BME280;1347;42.122;24.746;2023-03-16T02:52:26;98586.69;;;9.26;71.78
2675;BME280;1347;42.122;24.746;2023-03-16T02:54:53;98594.13;;;9.29;71.54
2675;BME280;1347;42.122;24.746;2023-03-16T02:57:20;98591.34;;;9.21;71.45
2675;BME280;1347;42.122;24.746;2023-03-16T02:59:47;98602.31;;;9.25;70.82
2675;BME280;1347;42.122;24.746;2023-03-16T03:02:14;98603.47;;;9.20;70.95
2675;BME280;1347;42.122;24.746;2023-03-16T03:04:42;98599.91;;;9.16;70.65
2675;BME280;1347;42.122;24.746;2023-03-16T03:07:10;98605.75;;;9.11;70.59
2675;BME280;1347;42.122;24.746;2023-03-16T03:09:38;98622.13;;;9.08;70.99
2675;BME280;1347;42.122;24.746;2023-03-16T03:12:07;98628.75;;;9.07;70.48
2675;BME280;1347;42.122;24.746;2023-03-16T03:14:34;98632.59;;;8.99;70.77
2675;BME280;1347;42.122;24.746;2023-03-16T03:17:02;98636.88;;;8.93;70.94
2675;BME280;1347;42.122;24.746;2023-03-16T03:19:29;98633.72;;;8.91;71.02
2675;BME280;1347;42.122;24.746;2023-03-16T03:21:59;98633.72;;;8.91;70.77
2675;BME280;1347;42.122;24.746;2023-03-16T03:24:29;98643.47;;;8.88;71.17
2675;BME280;1347;42.122;24.746;2023-03-16T03:26:56;98642.31;;;8.89;70.43
2675;BME280;1347;42.122;24.746;2023-03-16T03:29:25;98643.84;;;8.86;70.99
2675;BME280;1347;42.122;24.746;2023-03-16T03:31:59;98634.03;;;8.78;70.86
2675;BME280;1347;42.122;24.746;2023-03-16T03:34:26;98644.13;;;8.71;70.56
2675;BME280;1347;42.122;24.746;2023-03-16T03:36:53;98649.97;;;8.69;70.44
2675;BME280;1347;42.122;24.746;2023-03-16T03:39:22;98637.78;;;8.60;70.90
2675;BME280;1347;42.122;24.746;2023-03-16T03:41:49;98638.56;;;8.60;70.98
2675;BME280;1347;42.122;24.746;2023-03-16T03:44:19;98647.88;;;8.56;71.25
2675;BME280;1347;42.122;24.746;2023-03-16T03:46:46;98656.06;;;8.56;70.82
2675;BME280;1347;42.122;24.746;2023-03-16T03:49:13;98649.06;;;8.58;71.01
2675;BME280;1347;42.122;24.746;2023-03-16T03:51:40;98656.13;;;8.59;70.60
2675;BME280;1347;42.122;24.746;2023-03-16T03:54:07;98667.78;;;8.56;71.09
2675;BME280;1347;42.122;24.746;2023-03-16T03:56:36;98666.28;;;8.62;70.69
2675;BME280;1347;42.122;24.746;2023-03-16T03:59:03;98670.19;;;8.61;70.70
2675;BME280;1347;42.122;24.746;2023-03-16T04:01:30;98671.72;;;8.59;70.58
2675;BME280;1347;42.122;24.746;2023-03-16T04:03:56;98668.19;;;8.55;70.74
2675;BME280;1347;42.122;24.746;2023-03-16T04:06:23;98672.03;;;8.50;70.68
2675;BME280;1347;42.122;24.746;2023-03-16T04:08:50;98670.03;;;8.43;71.25
2675;BME280;1347;42.122;24.746;2023-03-16T04:11:18;98674.63;;;8.36;71.48
2675;BME280;1347;42.122;24.746;2023-03-16T04:13:49;98675.00;;;8.34;71.48
2675;BME280;1347;42.122;24.746;2023-03-16T04:16:16;98680.41;;;8.31;71.60
2675;BME280;1347;42.122;24.746;2023-03-16T04:18:43;98685.84;;;8.31;71.45
2675;BME280;1347;42.122;24.746;2023-03-16T04:21:13;98674.09;;;8.27;71.75
2675;BME280;1347;42.122;24.746;2023-03-16T04:23:41;98685.69;;;8.17;71.36
2675;BME280;1347;42.122;24.746;2023-03-16T04:26:08;98705.94;;;8.12;71.34
2675;BME280;1347;42.122;24.746;2023-03-16T04:28:34;98707.84;;;8.08;71.35
2675;BME280;1347;42.122;24.746;2023-03-16T04:31:04;98653.25;;;8.08;70.46
2675;BME280;1347;42.122;24.746;2023-03-16T04:33:31;98717.53;;;8.02;71.07
2675;BME280;1347;42.122;24.746;2023-03-16T04:35:59;98711.56;;;7.93;71.53
2675;BME280;1347;42.122;24.746;2023-03-16T04:38:27;98703.75;;;7.91;71.99
2675;BME280;1347;42.122;24.746;2023-03-16T04:40:54;98714.59;;;7.88;72.39
2675;BME280;1347;42.122;24.746;2023-03-16T04:43:21;98708.78;;;7.89;72.36
2675;BME280;1347;42.122;24.746;2023-03-16T04:45:48;98719.69;;;7.89;72.03
2675;BME280;1347;42.122;24.746;2023-03-16T04:48:16;98723.91;;;7.83;72.13
2675;BME280;1347;42.122;24.746;2023-03-16T04:50:43;98727.03;;;7.85;72.13
2675;BME280;1347;42.122;24.746;2023-03-16T04:53:10;98733.34;;;7.89;72.48
2675;BME280;1347;42.122;24.746;2023-03-16T04:55:37;98736.06;;;7.89;72.21
2675;BME280;1347;42.122;24.746;2023-03-16T04:58:04;98712.66;;;7.88;71.92
2675;BME280;1347;42.122;24.746;2023-03-16T05:00:31;98743.00;;;7.83;72.17
2675;BME280;1347;42.122;24.746;2023-03-16T05:02:58;98741.47;;;7.86;71.79
2675;BME280;1347;42.122;24.746;2023-03-16T05:05:28;98751.59;;;7.85;71.96
2675;BME280;1347;42.122;24.746;2023-03-16T05:07:55;98756.22;;;7.81;71.90
2675;BME280;1347;42.122;24.746;2023-03-16T05:10:22;98761.22;;;7.75;72.30
2675;BME280;1347;42.122;24.746;2023-03-16T05:12:49;98766.34;;;7.81;72.47
2675;BME280;1347;42.122;24.746;2023-03-16T05:15:16;98767.97;;;7.85;71.90
2675;BME280;1347;42.122;24.746;2023-03-16T05:17:43;98753.16;;;7.83;71.92
2675;BME280;1347;42.122;24.746;2023-03-16T05:20:14;98780.38;;;7.79;72.37
2675;BME280;1347;42.122;24.746;2023-03-16T05:22:44;98786.97;;;7.78;72.31
2675;BME280;1347;42.122;24.746;2023-03-16T05:25:13;98780.38;;;7.79;72.35
2675;BME280;1347;42.122;24.746;2023-03-16T05:27:40;98796.41;;;7.84;71.77
2675;BME280;1347;42.122;24.746;2023-03-16T05:30:08;98793.72;;;7.88;71.22
2675;BME280;1347;42.122;24.746;2023-03-16T05:32:36;98791.38;;;7.86;70.71
2675;BME280;1347;42.122;24.746;2023-03-16T05:35:03;98803.13;;;7.90;70.02
2675;BME280;1347;42.122;24.746;2023-03-16T05:37:31;98812.13;;;7.94;69.59
2675;BME280;1347;42.122;24.746;2023-03-16T05:40:00;98803.19;;;7.94;69.11
2675;BME280;1347;42.122;24.746;2023-03-16T05:42:36;98803.84;;;7.87;68.63
2675;BME280;1347;42.122;24.746;2023-03-16T05:45:03;98801.13;;;7.87;68.66
2675;BME280;1347;42.122;24.746;2023-03-16T05:47:30;98823.09;;;7.98;67.92
2675;BME280;1347;42.122;24.746;2023-03-16T05:49:57;98820.31;;;7.94;67.42
2675;BME280;1347;42.122;24.746;2023-03-16T05:52:24;98819.44;;;7.87;67.40
2675;BME280;1347;42.122;24.746;2023-03-16T05:54:51;98819.88;;;7.89;67.46
2675;BME280;1347;42.122;24.746;2023-03-16T05:57:20;98822.59;;;7.89;67.23
2675;BME280;1347;42.122;24.746;2023-03-16T05:59:46;98832.28;;;7.86;67.24
2675;BME280;1347;42.122;24.746;2023-03-16T06:02:14;98833.16;;;7.90;66.89
2675;BME280;1347;42.122;24.746;2023-03-16T06:04:41;98836.19;;;7.85;66.89
2675;BME280;1347;42.122;24.746;2023-03-16T06:07:09;98836.94;;;7.82;67.00
2675;BME280;1347;42.122;24.746;2023-03-16T06:09:35;98831.13;;;7.84;66.56
2675;BME280;1347;42.122;24.746;2023-03-16T06:12:02;98828.75;;;7.82;66.45
2675;BME280;1347;42.122;24.746;2023-03-16T06:14:31;98847.84;;;7.82;66.38
2675;BME280;1347;42.122;24.746;2023-03-16T06:16:58;98846.28;;;7.81;66.32
2675;BME280;1347;42.122;24.746;2023-03-16T06:19:25;98858.75;;;7.82;66.31
2675;BME280;1347;42.122;24.746;2023-03-16T06:21:52;98852.94;;;7.84;66.12
2675;BME280;1347;42.122;24.746;2023-03-16T06:24:19;98850.97;;;7.84;65.85
2675;BME280;1347;42.122;24.746;2023-03-16T06:26:45;98846.44;;;7.92;65.79
2675;BME280;1347;42.122;24.746;2023-03-16T06:29:12;98856.13;;;7.89;65.49
2675;BME280;1347;42.122;24.746;2023-03-16T06:31:41;98848.47;;;7.98;65.14
2675;BME280;1347;42.122;24.746;2023-03-16T06:34:07;98861.31;;;7.98;64.70
2675;BME280;1347;42.122;24.746;2023-03-16T06:36:34;98872.56;;;7.93;64.86
2675;BME280;1347;42.122;24.746;2023-03-16T06:39:03;98880.75;;;7.93;64.96
2675;BME280;1347;42.122;24.746;2023-03-16T06:41:30;98883.16;;;7.98;64.39
2675;BME280;1347;42.122;24.746;2023-03-16T06:43:57;98875.44;;;8.03;64.70
2675;BME280;1347;42.122;24.746;2023-03-16T06:46:24;98910.06;;;7.99;64.37
2675;BME280;1347;42.122;24.746;2023-03-16T06:48:52;98901.69;;;8.11;64.37
2675;BME280;1347;42.122;24.746;2023-03-16T06:51:19;98895.06;;;8.12;64.16
2675;BME280;1347;42.122;24.746;2023-03-16T06:53:46;98914.63;;;8.18;63.70
2675;BME280;1347;42.122;24.746;2023-03-16T06:56:13;98903.41;;;8.23;63.26
2675;BME280;1347;42.122;24.746;2023-03-16T06:58:39;98910.41;;;8.21;63.33
2675;BME280;1347;42.122;24.746;2023-03-16T07:01:06;98919.03;;;8.26;63.51
2675;BME280;1347;42.122;24.746;2023-03-16T07:03:33;98910.69;;;8.16;62.96
2675;BME280;1347;42.122;24.746;2023-03-16T07:06:01;98923.31;;;8.24;63.11
2675;BME280;1347;42.122;24.746;2023-03-16T07:08:28;98926.97;;;8.31;62.92
2675;BME280;1347;42.122;24.746;2023-03-16T07:10:55;98925.72;;;8.29;62.68
2675;BME280;1347;42.122;24.746;2023-03-16T07:13:22;98937.00;;;8.27;62.63
2675;BME280;1347;42.122;24.746;2023-03-16T07:15:49;98929.56;;;8.24;62.62
2675;BME280;1347;42.122;24.746;2023-03-16T07:18:17;98947.13;;;8.27;62.32
2675;BME280;1347;42.122;24.746;2023-03-16T07:20:44;98939.28;;;8.22;62.37
2675;BME280;1347;42.122;24.746;2023-03-16T07:23:13;98942.28;;;8.39;62.11
2675;BME280;1347;42.122;24.746;2023-03-16T07:25:40;98943.91;;;8.44;61.96
2675;BME280;1347;42.122;24.746;2023-03-16T07:28:07;98934.97;;;8.47;61.93
2675;BME280;1347;42.122;24.746;2023-03-16T07:30:34;98946.84;;;8.58;61.44
2675;BME280;1347;42.122;24.746;2023-03-16T07:33:00;98955.38;;;8.53;61.40
2675;BME280;1347;42.122;24.746;2023-03-16T07:35:27;98947.31;;;8.64;61.16
2675;BME280;1347;42.122;24.746;2023-03-16T07:37:54;98955.25;;;8.76;61.22
2675;BME280;1347;42.122;24.746;2023-03-16T07:40:22;98927.91;;;8.72;60.51
2675;BME280;1347;42.122;24.746;2023-03-16T07:42:49;98949.44;;;8.77;60.74
2675;BME280;1347;42.122;24.746;2023-03-16T07:45:16;98933.63;;;8.94;60.39
2675;BME280;1347;42.122;24.746;2023-03-16T07:47:43;98960.69;;;9.06;60.13
2675;BME280;1347;42.122;24.746;2023-03-16T07:50:11;98953.41;;;9.17;59.56
2675;BME280;1347;42.122;24.746;2023-03-16T07:52:40;98944.41;;;9.13;59.23
2675;BME280;1347;42.122;24.746;2023-03-16T07:55:08;98958.13;;;9.20;59.52
2675;BME280;1347;42.122;24.746;2023-03-16T07:57:37;98953.56;;;9.31;58.99
2675;BME280;1347;42.122;24.746;2023-03-16T08:00:08;98951.94;;;9.27;59.28
2675;BME280;1347;42.122;24.746;2023-03-16T08:02:35;98951.59;;;9.28;59.56
2675;BME280;1347;42.122;24.746;2023-03-16T08:05:02;98962.22;;;9.37;59.43
2675;BME280;1347;42.122;24.746;2023-03-16T08:07:29;98964.78;;;9.56;58.40
2675;BME280;1347;42.122;24.746;2023-03-16T08:09:56;98956.84;;;9.47;58.30
2675;BME280;1347;42.122;24.746;2023-03-16T08:12:23;98966.84;;;9.29;58.96
2675;BME280;1347;42.122;24.746;2023-03-16T08:14:51;98963.34;;;9.32;58.88
2675;BME280;1347;42.122;24.746;2023-03-16T08:17:19;98967.31;;;9.38;58.97
2675;BME280;1347;42.122;24.746;2023-03-16T08:19:46;98966.28;;;9.50;58.73
2675;BME280;1347;42.122;24.746;2023-03-16T08:22:13;98969.56;;;9.66;58.53
2675;BME280;1347;42.122;24.746;2023-03-16T08:24:39;98976.97;;;9.62;58.29
2675;BME280;1347;42.122;24.746;2023-03-16T08:27:07;98968.75;;;9.62;58.51
2675;BME280;1347;42.122;24.746;2023-03-16T08:29:34;98974.66;;;9.68;58.11
2675;BME280;1347;42.122;24.746;2023-03-16T08:32:04;98982.47;;;9.66;57.19
2675;BME280;1347;42.122;24.746;2023-03-16T08:34:31;98978.56;;;9.67;57.37
2675;BME280;1347;42.122;24.746;2023-03-16T08:36:58;98982.16;;;9.74;56.33
2675;BME280;1347;42.122;24.746;2023-03-16T08:39:25;98958.63;;;9.66;56.37
2675;BME280;1347;42.122;24.746;2023-03-16T08:41:53;98968.78;;;9.66;56.68
2675;BME280;1347;42.122;24.746;2023-03-16T08:44:21;98983.41;;;9.84;56.37
2675;BME280;1347;42.122;24.746;2023-03-16T08:46:48;98972.25;;;10.03;55.85
2675;BME280;1347;42.122;24.746;2023-03-16T08:49:17;98974.88;;;10.40;55.29
2675;BME280;1347;42.122;24.746;2023-03-16T08:51:45;98967.63;;;10.69;54.61
2675;BME280;1347;42.122;24.746;2023-03-16T08:54:12;98979.50;;;10.87;53.71
2675;BME280;1347;42.122;24.746;2023-03-16T08:56:40;98979.97;;;11.14;53.16
2675;BME280;1347;42.122;24.746;2023-03-16T08:59:07;98976.94;;;11.40;52.40
2675;BME280;1347;42.122;24.746;2023-03-16T09:01:34;98969.91;;;11.61;52.28
2675;BME280;1347;42.122;24.746;2023-03-16T09:04:01;98963.72;;;12.03;50.88
2675;BME280;1347;42.122;24.746;2023-03-16T09:06:32;98976.25;;;11.93;50.47
2675;BME280;1347;42.122;24.746;2023-03-16T09:09:01;98973.53;;;12.25;49.86
2675;BME280;1347;42.122;24.746;2023-03-16T09:11:29;98968.78;;;12.33;49.24
2675;BME280;1347;42.122;24.746;2023-03-16T09:13:59;98991.19;;;12.31;49.55
2675;BME280;1347;42.122;24.746;2023-03-16T09:16:26;98988.81;;;12.62;48.96
2675;BME280;1347;42.122;24.746;2023-03-16T09:18:55;98999.44;;;12.31;48.83
2675;BME280;1347;42.122;24.746;2023-03-16T09:21:22;98963.72;;;12.06;49.42
2675;BME280;1347;42.122;24.746;2023-03-16T09:23:51;98977.06;;;12.36;48.96
2675;BME280;1347;42.122;24.746;2023-03-16T09:26:18;98996.28;;;12.50;48.34
2675;BME280;1347;42.122;24.746;2023-03-16T09:28:46;99004.91;;;12.60;48.10
2675;BME280;1347;42.122;24.746;2023-03-16T09:31:16;98973.91;;;12.34;48.69
2675;BME280;1347;42.122;24.746;2023-03-16T09:33:43;98978.59;;;12.48;48.52
2675;BME280;1347;42.122;24.746;2023-03-16T09:36:10;98975.44;;;12.67;47.59
2675;BME280;1347;42.122;24.746;2023-03-16T09:38:38;98989.56;;;12.66;47.64
2675;BME280;1347;42.122;24.746;2023-03-16T09:41:09;99001.38;;;12.59;47.81
2675;BME280;1347;42.122;24.746;2023-03-16T09:43:55;98973.75;;;12.95;46.63
2675;BME280;1347;42.122;24.746;2023-03-16T09:46:26;99006.75;;;13.19;46.92
2675;BME280;1347;42.122;24.746;2023-03-16T09:48:55;99008.38;;;12.85;47.08
2675;BME280;1347;42.122;24.746;2023-03-16T09:51:34;99002.16;;;12.52;47.07
2675;BME280;1347;42.122;24.746;2023-03-16T09:54:07;98995.81;;;12.87;46.82
2675;BME280;1347;42.122;24.746;2023-03-16T09:56:41;98996.09;;;13.29;45.74
2675;BME280;1347;42.122;24.746;2023-03-16T09:59:10;99010.22;;;13.31;45.52
2675;BME280;1347;42.122;24.746;2023-03-16T10:01:45;98999.19;;;13.38;45.46
2675;BME280;1347;42.122;24.746;2023-03-16T10:04:23;99007.25;;;13.73;45.26
2675;BME280;1347;42.122;24.746;2023-03-16T10:07:04;98996.31;;;14.18;44.44
2675;BME280;1347;42.122;24.746;2023-03-16T10:09:42;99049.44;;;13.63;44.62
2675;BME280;1347;42.122;24.746;2023-03-16T10:12:14;99017.66;;;13.34;45.51
2675;BME280;1347;42.122;24.746;2023-03-16T10:14:46;99001.94;;;13.34;44.88
2675;BME280;1347;42.122;24.746;2023-03-16T10:17:16;99010.63;;;13.33;44.84
2675;BME280;1347;42.122;24.746;2023-03-16T10:19:47;98999.53;;;13.47;44.26
2675;BME280;1347;42.122;24.746;2023-03-16T10:22:19;99012.88;;;13.52;44.88
2675;BME280;1347;42.122;24.746;2023-03-16T10:24:56;99018.50;;;13.96;44.23
2675;BME280;1347;42.122;24.746;2023-03-16T10:27:27;99006.53;;;13.62;44.22
2675;BME280;1347;42.122;24.746;2023-03-16T10:29:55;99013.69;;;13.49;44.68
2675;BME280;1347;42.122;24.746;2023-03-16T10:32:22;99009.91;;;13.87;44.04
2675;BME280;1347;42.122;24.746;2023-03-16T10:34:57;99012.50;;;14.12;43.53
2675;BME280;1347;42.122;24.746;2023-03-16T10:37:29;99010.06;;;14.21;42.79
2675;BME280;1347;42.122;24.746;2023-03-16T10:39:57;98998.44;;;13.96;43.23
2675;BME280;1347;42.122;24.746;2023-03-16T10:42:26;99022.28;;;13.61;43.73
2675;BME280;1347;42.122;24.746;2023-03-16T10:44:58;99015.88;;;13.79;44.22
2675;BME280;1347;42.122;24.746;2023-03-16T10:47:29;98996.94;;;14.36;43.17
2675;BME280;1347;42.122;24.746;2023-03-16T10:49:57;99021.78;;;14.81;42.35
2675;BME280;1347;42.122;24.746;2023-03-16T10:52:32;99000.16;;;15.09;42.11
2675;BME280;1347;42.122;24.746;2023-03-16T10:55:06;99002.06;;;14.79;41.63
2675;BME280;1347;42.122;24.746;2023-03-16T10:57:36;99009.28;;;15.37;41.19
2675;BME280;1347;42.122;24.746;2023-03-16T11:00:06;99009.44;;;15.26;40.65
2675;BME280;1347;42.122;24.746;2023-03-16T11:02:37;98988.53;;;14.91;41.13
2675;BME280;1347;42.122;24.746;2023-03-16T11:05:13;99006.81;;;14.78;41.36
2675;BME280;1347;42.122;24.746;2023-03-16T11:07:46;98998.41;;;14.51;41.64
2675;BME280;1347;42.122;24.746;2023-03-16T11:10:24;98997.00;;;14.29;42.04
2675;BME280;1347;42.122;24.746;2023-03-16T11:12:54;99006.94;;;14.19;42.17
2675;BME280;1347;42.122;24.746;2023-03-16T11:15:20;98994.19;;;14.36;42.28
2675;BME280;1347;42.122;24.746;2023-03-16T11:17:50;99003.28;;;14.33;42.45
2675;BME280;1347;42.122;24.746;2023-03-16T11:20:22;99004.88;;;14.30;42.34
2675;BME280;1347;42.122;24.746;2023-03-16T11:22:53;98998.06;;;14.46;42.45
2675;BME280;1347;42.122;24.746;2023-03-16T11:25:26;99004.56;;;14.66;42.36
2675;BME280;1347;42.122;24.746;2023-03-16T11:28:01;99008.69;;;14.47;42.70
2675;BME280;1347;42.122;24.746;2023-03-16T11:30:40;99002.47;;;14.40;42.85
2675;BME280;1347;42.122;24.746;2023-03-16T11:33:09;98982.00;;;14.33;42.76
2675;BME280;1347;42.122;24.746;2023-03-16T11:35:43;99001.31;;;13.78;44.02
2675;BME280;1347;42.122;24.746;2023-03-16T11:38:14;98999.28;;;13.86;43.95
2675;BME280;1347;42.122;24.746;2023-03-16T11:40:54;99003.28;;;13.74;43.64
2675;BME280;1347;42.122;24.746;2023-03-16T11:43:42;98999.75;;;13.77;43.86
2675;BME280;1347;42.122;24.746;2023-03-16T11:46:15;99011.66;;;13.56;44.06
2675;BME280;1347;42.122;24.746;2023-03-16T11:48:50;99001.97;;;13.96;43.39
2675;BME280;1347;42.122;24.746;2023-03-16T11:51:38;98994.56;;;13.90;43.32
2675;BME280;1347;42.122;24.746;2023-03-16T11:54:21;99001.59;;;14.46;42.43
2675;BME280;1347;42.122;24.746;2023-03-16T11:56:56;99011.50;;;14.40;42.67
2675;BME280;1347;42.122;24.746;2023-03-16T11:59:41;99007.50;;;14.48;42.96
2675;BME280;1347;42.122;24.746;2023-03-16T12:02:28;99013.28;;;14.61;42.27
2675;BME280;1347;42.122;24.746;2023-03-16T12:05:19;98986.34;;;14.31;42.02
2675;BME280;1347;42.122;24.746;2023-03-16T12:07:53;99004.91;;;13.68;43.10
2675;BME280;1347;42.122;24.746;2023-03-16T12:10:24;99001.06;;;13.55;43.65
2675;BME280;1347;42.122;24.746;2023-03-16T12:13:03;99004.78;;;13.20;44.00
2675;BME280;1347;42.122;24.746;2023-03-16T12:15:38;99028.38;;;13.07;44.19
2675;BME280;1347;42.122;24.746;2023-03-16T12:18:16;99019.78;;;12.83;45.13
2675;BME280;1347;42.122;24.746;2023-03-16T12:20:52;99018.66;;;12.60;45.84
2675;BME280;1347;42.122;24.746;2023-03-16T12:23:20;99019.44;;;12.46;46.22
2675;BME280;1347;42.122;24.746;2023-03-16T12:25:51;99026.50;;;12.54;46.29
2675;BME280;1347;42.122;24.746;2023-03-16T12:28:23;99025.31;;;12.69;45.57
2675;BME280;1347;42.122;24.746;2023-03-16T12:31:07;99021.81;;;12.62;46.16
2675;BME280;1347;42.122;24.746;2023-03-16T12:33:42;99025.69;;;12.78;45.63
2675;BME280;1347;42.122;24.746;2023-03-16T12:39:28;99029.66;;;12.60;45.86
2675;BME280;1347;42.122;24.746;2023-03-16T12:42:08;99027.28;;;12.69;45.96
2675;BME280;1347;42.122;24.746;2023-03-16T12:44:44;99045.38;;;12.45;45.70
2675;BME280;1347;42.122;24.746;2023-03-16T12:47:18;99034.38;;;12.27;46.41
2675;BME280;1347;42.122;24.746;2023-03-16T12:49:48;99023.00;;;12.18;46.88
2675;BME280;1347;42.122;24.746;2023-03-16T12:52:16;99034.75;;;12.26;46.73
2675;BME280;1347;42.122;24.746;2023-03-16T12:54:51;99037.50;;;12.15;47.13
2675;BME280;1347;42.122;24.746;2023-03-16T12:57:21;99043.78;;;12.15;46.88
2675;BME280;1347;42.122;24.746;2023-03-16T12:59:54;99048.50;;;12.19;47.13
2675;BME280;1347;42.122;24.746;2023-03-16T13:02:28;99009.63;;;12.02;46.94
2675;BME280;1347;42.122;24.746;2023-03-16T13:04:59;99040.59;;;11.82;47.00
2675;BME280;1347;42.122;24.746;2023-03-16T13:07:28;99040.91;;;11.62;47.95
2675;BME280;1347;42.122;24.746;2023-03-16T13:09:59;99052.25;;;11.47;47.90
2675;BME280;1347;42.122;24.746;2023-03-16T13:12:31;99067.22;;;11.67;48.01
2675;BME280;1347;42.122;24.746;2023-03-16T13:15:01;99055.03;;;11.64;47.84
2675;BME280;1347;42.122;24.746;2023-03-16T13:17:32;99055.03;;;11.57;48.15
2675;BME280;1347;42.122;24.746;2023-03-16T13:20:06;99057.75;;;11.57;48.27
2675;BME280;1347;42.122;24.746;2023-03-16T13:23:04;99054.25;;;11.71;48.11
2675;BME280;1347;42.122;24.746;2023-03-16T13:25:41;99049.94;;;11.59;47.83
2675;BME280;1347;42.122;24.746;2023-03-16T13:28:12;99065.16;;;11.42;48.47
2675;BME280;1347;42.122;24.746;2023-03-16T13:30:44;99076.94;;;11.47;48.74
2675;BME280;1347;42.122;24.746;2023-03-16T13:33:18;99069.50;;;11.47;48.51
2675;BME280;1347;42.122;24.746;2023-03-16T13:35:48;99081.22;;;11.40;49.16
2675;BME280;1347;42.122;24.746;2023-03-16T13:38:16;99084.75;;;11.44;48.83
2675;BME280;1347;42.122;24.746;2023-03-16T13:40:45;99080.81;;;11.35;48.86